createdAt,value
2023-01-13T00:00:01.521Z,88333.00
2023-01-13T00:01:01.495Z,88333.00
2023-01-13T00:02:01.492Z,88333.00
2023-01-13T00:03:01.407Z,88331.00
2023-01-13T00:04:01.384Z,88323.00
2023-01-13T00:05:01.448Z,88329.00
2023-01-13T00:06:01.306Z,88331.00
2023-01-13T00:07:01.273Z,88331.00
2023-01-13T00:08:01.230Z,88329.00
2023-01-13T00:09:01.190Z,88327.00
2023-01-13T00:10:01.173Z,88337.00
2023-01-13T00:11:01.119Z,88331.00
2023-01-13T00:12:01.085Z,88331.00
2023-01-13T00:13:01.059Z,88331.00
2023-01-13T00:14:01.017Z,88327.00
2023-01-13T00:15:00.988Z,88319.00
2023-01-13T00:16:01.025Z,88317.00
2023-01-13T00:17:00.897Z,88321.00
2023-01-13T00:18:00.862Z,88323.00
2023-01-13T00:19:00.817Z,88323.00
2023-01-13T00:20:00.787Z,88329.00
2023-01-13T00:21:00.754Z,88333.00
2023-01-13T00:22:00.706Z,88331.00
2023-01-13T00:23:00.656Z,88327.00
2023-01-13T00:24:00.627Z,88333.00
2023-01-13T00:25:00.592Z,88331.00
2023-01-13T00:26:00.560Z,88331.00
2023-01-13T00:27:00.527Z,88329.00
2023-01-13T00:28:00.476Z,88321.00
2023-01-13T00:29:00.469Z,88319.00
2023-01-13T00:30:00.405Z,88329.00
2023-01-13T00:31:00.385Z,88319.00
2023-01-13T00:32:00.334Z,88323.00
2023-01-13T00:33:00.300Z,88321.00
2023-01-13T00:34:00.256Z,88323.00
2023-01-13T00:35:00.217Z,88317.00
2023-01-13T00:36:00.191Z,88325.00
2023-01-13T00:37:00.150Z,88325.00
2023-01-13T00:38:00.120Z,88325.00
2023-01-13T00:39:00.065Z,88329.00
2023-01-13T00:40:00.030Z,88323.00
2023-01-13T00:40:59.990Z,88325.00
2023-01-13T00:41:59.950Z,88317.00
2023-01-13T00:42:59.918Z,88313.00
2023-01-13T00:43:59.873Z,88310.00
2023-01-13T00:44:59.831Z,88317.00
2023-01-13T00:45:59.798Z,88311.00
2023-01-13T00:46:59.766Z,88308.00
2023-01-13T00:47:59.717Z,88302.00
2023-01-13T00:48:59.682Z,88304.00
2023-01-13T00:49:59.646Z,88315.00
2023-01-13T00:50:59.605Z,88304.00
2023-01-13T00:51:59.549Z,88306.00
2023-01-13T00:52:59.495Z,88298.00
2023-01-13T00:53:59.475Z,88304.00
2023-01-13T00:54:59.417Z,88296.00
2023-01-13T00:55:59.389Z,88296.00
2023-01-13T00:56:59.347Z,88300.00
2023-01-13T00:57:59.300Z,88288.00
2023-01-13T00:58:59.255Z,88288.00
2023-01-13T00:59:59.207Z,88280.00
2023-01-13T01:00:59.253Z,88286.00
2023-01-13T01:01:59.219Z,88290.00
2023-01-13T01:02:59.078Z,88274.00
2023-01-13T01:03:59.039Z,88296.00
2023-01-13T01:04:59.004Z,88294.00
2023-01-13T01:05:59.055Z,88294.00
2023-01-13T01:06:58.905Z,88286.00
2023-01-13T03:55:51.494Z,88183.00
2023-01-13T03:56:51.441Z,88183.00
2023-01-13T03:57:51.428Z,88187.00
2023-01-13T03:58:51.367Z,88185.00
2023-01-13T03:59:51.335Z,88181.00
2023-01-13T04:00:51.308Z,88179.00
2023-01-13T04:01:51.445Z,88177.00
2023-01-13T04:02:51.213Z,88177.00
2023-01-13T04:03:51.237Z,88177.00
2023-01-13T04:04:51.180Z,88181.00
2023-01-13T04:05:51.108Z,88187.00
2023-01-13T04:06:51.083Z,88187.00
2023-01-13T04:07:51.038Z,88193.00
2023-01-13T04:08:50.985Z,88191.00
2023-01-13T04:09:50.989Z,88193.00
2023-01-13T04:10:50.935Z,88195.00
2023-01-13T04:11:50.865Z,88189.00
2023-01-13T04:12:50.835Z,88187.00
2023-01-13T04:13:50.800Z,88187.00
2023-01-13T04:14:50.749Z,88189.00
2023-01-13T04:15:50.796Z,88191.00
2023-01-13T04:16:50.681Z,88195.00
2023-01-13T04:17:50.633Z,88199.00
2023-01-13T04:18:50.591Z,88199.00
2023-01-13T04:19:50.548Z,88201.00
2023-01-13T04:20:50.515Z,88199.00
2023-01-13T04:21:50.483Z,88201.00
2023-01-13T04:22:50.433Z,88204.00
2023-01-13T04:23:50.399Z,88201.00
2023-01-13T04:24:50.355Z,88197.00
2023-01-13T04:25:50.325Z,88199.00
2023-01-13T04:26:50.275Z,88201.00
2023-01-13T04:27:50.235Z,88201.00
2023-01-13T04:28:50.204Z,88203.00
2023-01-13T04:29:50.182Z,88204.00
2023-01-13T04:30:50.208Z,88206.00
2023-01-13T04:31:50.106Z,88206.00
2023-01-13T04:32:50.053Z,88206.00
2023-01-13T04:33:50.034Z,88208.00
2023-01-13T04:34:49.995Z,88210.00
2023-01-13T04:35:49.953Z,88219.00
2023-01-13T04:36:49.904Z,88219.00
2023-01-13T04:37:49.888Z,88217.00
2023-01-13T04:38:49.844Z,88217.00
2023-01-13T04:39:49.796Z,88210.00
2023-01-13T04:40:49.787Z,88210.00
2023-01-13T04:41:49.718Z,88203.00
2023-01-13T04:42:49.679Z,88201.00
2023-01-13T04:43:49.643Z,88203.00
2023-01-13T04:44:49.595Z,88201.00
2023-01-13T04:45:49.599Z,88203.00
2023-01-13T04:46:49.534Z,88203.00
2023-01-13T04:47:49.505Z,88204.00
2023-01-13T04:48:49.455Z,88203.00
2023-01-13T04:49:49.423Z,88208.00
2023-01-13T04:50:49.411Z,88208.00
2023-01-13T04:51:49.375Z,88217.00
2023-01-13T04:52:49.335Z,88210.00
2023-01-13T04:53:49.296Z,88210.00
2023-01-13T04:54:49.255Z,88208.00
2023-01-13T04:55:49.220Z,88206.00
2023-01-13T04:56:49.187Z,88208.00
2023-01-13T04:57:49.147Z,88204.00
2023-01-13T04:58:49.110Z,88206.00
2023-01-13T04:59:49.074Z,88206.00
2023-01-13T05:00:49.033Z,88210.00
2023-01-13T05:01:49.063Z,88217.00
2023-01-13T05:02:48.944Z,88223.00
2023-01-13T05:03:48.912Z,88223.00
2023-01-13T08:08:41.111Z,88193.00
2023-01-13T08:09:41.117Z,88191.00
2023-01-13T08:10:41.018Z,88185.00
2023-01-13T08:11:40.981Z,88185.00
2023-01-13T08:12:40.924Z,88179.00
2023-01-13T08:14:40.841Z,88185.00
2023-01-13T08:15:40.785Z,88187.00
2023-01-13T08:16:40.803Z,88193.00
2023-01-13T08:17:40.697Z,88199.00
2023-01-13T08:18:40.646Z,88195.00
2023-01-13T08:19:40.604Z,88201.00
2023-01-13T08:20:40.597Z,88206.00
2023-01-13T08:21:40.528Z,88204.00
2023-01-13T08:22:40.474Z,88201.00
2023-01-13T08:23:40.415Z,88203.00
2023-01-13T08:24:40.388Z,88201.00
2023-01-13T08:25:40.324Z,88197.00
2023-01-13T08:26:40.296Z,88197.00
2023-01-13T08:27:40.253Z,88201.00
2023-01-13T08:28:40.198Z,88201.00
2023-01-13T08:29:40.158Z,88201.00
2023-01-13T08:30:40.247Z,88203.00
2023-01-13T08:31:40.062Z,88204.00
2023-01-13T08:32:40.010Z,88206.00
2023-01-13T08:33:39.975Z,88217.00
2023-01-13T08:34:39.932Z,88210.00
2023-01-13T08:35:39.874Z,88206.00
2023-01-13T08:36:39.832Z,88219.00
2023-01-13T08:37:39.778Z,88210.00
2023-01-13T08:38:39.729Z,88217.00
2023-01-13T08:39:39.693Z,88219.00
2023-01-13T08:40:39.658Z,88210.00
2023-01-13T08:41:39.598Z,88219.00
2023-01-13T08:42:39.549Z,88208.00
2023-01-13T08:43:39.582Z,88210.00
2023-01-13T08:45:39.391Z,88221.00
2023-01-13T08:46:39.335Z,88229.00
2023-01-13T08:47:39.282Z,88223.00
2023-01-13T08:48:39.226Z,88227.00
2023-01-13T08:49:39.200Z,88227.00
2023-01-13T08:51:39.047Z,88225.00
2023-01-13T08:52:38.995Z,88229.00
2023-01-13T08:53:38.949Z,88233.00
2023-01-13T11:38:29.623Z,88116.00
2023-01-13T11:39:29.561Z,88112.00
2023-01-13T11:40:29.505Z,88118.00
2023-01-13T11:41:29.436Z,88126.00
2023-01-13T11:42:29.370Z,88120.00
2023-01-13T11:43:29.313Z,88114.00
2023-01-13T11:44:29.270Z,88114.00
2023-01-13T11:45:29.231Z,88110.00
2023-01-13T11:46:29.176Z,88114.00
2023-01-13T11:47:29.097Z,88104.00
2023-01-13T11:48:29.007Z,88104.00
2023-01-13T11:49:28.944Z,88098.00
2023-01-13T14:35:20.502Z,88102.00
2023-01-13T15:05:19.063Z,88077.00
2023-01-13T15:06:18.989Z,88075.00
2023-01-13T15:07:18.969Z,88079.00
2023-01-13T17:15:13.228Z,88325.00
2023-01-13T17:20:13.018Z,88339.00
2023-01-13T17:21:12.948Z,88341.00
2023-01-13T17:22:12.905Z,88343.00
2023-01-13T17:23:12.899Z,88343.00
2023-01-13T17:24:12.827Z,88341.00
2023-01-13T17:25:12.777Z,88341.00
2023-01-13T17:26:12.732Z,88343.00
2023-01-13T17:27:12.687Z,88345.00
2023-01-13T17:28:12.665Z,88345.00
2023-01-13T17:29:12.620Z,88347.00
2023-01-13T17:30:12.599Z,88345.00
2023-01-13T17:31:12.531Z,88347.00
2023-01-13T17:32:12.507Z,88347.00
2023-01-13T17:33:12.467Z,88349.00
2023-01-13T17:34:12.440Z,88351.00
2023-01-13T17:35:12.382Z,88353.00
2023-01-13T17:36:12.342Z,88355.00
2023-01-13T17:37:12.307Z,88359.00
2023-01-13T17:38:12.266Z,88359.00
2023-01-13T17:39:12.231Z,88359.00
2023-01-13T17:40:12.232Z,88363.00
2023-01-13T17:41:12.138Z,88366.00
2023-01-13T17:42:12.099Z,88365.00
2023-01-13T17:43:12.048Z,88370.00
2023-01-13T17:44:12.020Z,88370.00
2023-01-13T17:45:11.998Z,88370.00
2023-01-13T17:46:11.992Z,88374.00
2023-01-13T17:47:11.948Z,88374.00
2023-01-13T17:48:11.849Z,88372.00
2023-01-13T17:49:11.819Z,88382.00
2023-01-13T17:50:11.762Z,88382.00
2023-01-13T17:51:11.738Z,88382.00
2023-01-13T17:52:11.685Z,88382.00
2023-01-13T17:53:11.642Z,88380.00
2023-01-13T17:54:11.605Z,88378.00
2023-01-13T17:55:11.556Z,88378.00
2023-01-13T17:56:11.543Z,88378.00
2023-01-13T17:57:11.481Z,88378.00
2023-01-13T17:58:11.462Z,88378.00
2023-01-13T17:59:11.418Z,88382.00
2023-01-13T18:00:11.371Z,88380.00
2023-01-13T18:01:11.479Z,88378.00
2023-01-13T18:02:11.487Z,88378.00
2023-01-13T18:03:11.258Z,88378.00
2023-01-13T18:04:11.216Z,88382.00
2023-01-13T18:05:11.177Z,88390.00
2023-01-13T18:06:11.186Z,88392.00
2023-01-13T18:07:11.109Z,88398.00
2023-01-13T18:08:11.081Z,88402.00
2023-01-13T18:09:11.026Z,88406.00
2023-01-13T18:10:10.990Z,88404.00
2023-01-13T18:11:10.972Z,88404.00
2023-01-13T18:12:10.913Z,88404.00
2023-01-13T18:13:10.863Z,88404.00
2023-01-13T18:14:10.845Z,88402.00
2023-01-13T18:15:10.785Z,88402.00
2023-01-13T18:16:10.792Z,88402.00
2023-01-13T18:17:10.725Z,88404.00
2023-01-13T18:18:10.686Z,88404.00
2023-01-13T18:19:10.628Z,88406.00
2023-01-13T18:20:10.601Z,88408.00
2023-01-13T18:21:10.566Z,88410.00
2023-01-13T18:22:10.537Z,88412.00
2023-01-13T18:23:10.509Z,88418.00
2023-01-13T18:24:10.481Z,88418.00
2023-01-13T18:25:10.432Z,88418.00
2023-01-13T18:26:10.399Z,88418.00
2023-01-13T18:27:10.364Z,88416.00
2023-01-13T18:28:10.321Z,88414.00
2023-01-13T18:29:10.267Z,88416.00
2023-01-13T18:30:10.264Z,88414.00
2023-01-13T18:31:10.231Z,88412.00
2023-01-13T18:32:10.178Z,88410.00
2023-01-13T18:33:10.133Z,88410.00
2023-01-13T18:34:10.123Z,88410.00
2023-01-13T18:35:10.071Z,88410.00
2023-01-13T18:36:10.034Z,88412.00
2023-01-13T18:37:10.015Z,88410.00
2023-01-13T18:38:09.972Z,88412.00
2023-01-13T18:39:09.931Z,88410.00
2023-01-13T18:40:09.890Z,88412.00
2023-01-13T18:41:09.846Z,88414.00
2023-01-13T18:42:09.841Z,88416.00
2023-01-13T18:43:09.804Z,88418.00
2023-01-13T18:44:09.744Z,88421.00
2023-01-13T18:45:10.638Z,88420.00
2023-01-13T18:46:09.679Z,88423.00
2023-01-13T18:47:09.635Z,88420.00
2023-01-13T18:48:09.598Z,88420.00
2023-01-13T18:49:09.560Z,88418.00
2023-01-13T18:50:09.523Z,88416.00
2023-01-13T18:51:09.461Z,88421.00
2023-01-13T18:52:09.465Z,88421.00
2023-01-13T18:53:09.387Z,88421.00
2023-01-13T18:54:09.349Z,88423.00
2023-01-13T18:55:09.313Z,88420.00
2023-01-13T18:56:09.284Z,88420.00
2023-01-13T18:57:09.247Z,88421.00
2023-01-13T18:58:09.198Z,88421.00
2023-01-13T18:59:09.159Z,88425.00
2023-01-13T19:00:09.137Z,88427.00
2023-01-13T19:01:09.150Z,88429.00
2023-01-13T19:02:09.174Z,88431.00
2023-01-13T19:03:09.059Z,88427.00
2023-01-13T19:04:08.969Z,88427.00
2023-01-13T19:05:08.922Z,88429.00
2023-01-13T19:06:08.891Z,88427.00
2023-01-13T19:07:08.873Z,88431.00
2023-01-13T19:08:08.827Z,88429.00
2023-01-13T19:09:08.801Z,88423.00
2023-01-13T19:10:08.737Z,88421.00
2023-01-13T19:11:08.701Z,88418.00
2023-01-13T19:12:08.683Z,88418.00
2023-01-13T19:13:08.644Z,88416.00
2023-01-13T19:14:08.589Z,88416.00
2023-01-13T19:15:08.533Z,88418.00
2023-01-13T19:16:08.539Z,88418.00
2023-01-13T19:17:08.461Z,88420.00
2023-01-13T19:18:08.428Z,88418.00
2023-01-13T19:19:08.390Z,88420.00
2023-01-13T19:20:08.363Z,88420.00
2023-01-13T19:21:08.321Z,88421.00
2023-01-13T19:22:08.295Z,88427.00
2023-01-13T19:23:08.249Z,88431.00
2023-01-13T19:24:08.189Z,88433.00
2023-01-13T19:25:08.147Z,88435.00
2023-01-13T19:26:08.119Z,88433.00
2023-01-13T19:27:08.067Z,88431.00
2023-01-13T19:28:08.074Z,88427.00
2023-01-13T19:29:08.005Z,88425.00
2023-01-13T19:30:07.964Z,88423.00
2023-01-13T19:31:08.037Z,88423.00
2023-01-13T19:32:07.887Z,88423.00
2023-01-13T19:33:07.839Z,88425.00
2023-01-13T19:34:07.827Z,88427.00
2023-01-13T19:35:07.759Z,88431.00
2023-01-13T19:36:07.734Z,88433.00
2023-01-13T19:37:07.676Z,88435.00
2023-01-13T19:38:07.678Z,88441.00
2023-01-13T19:39:07.605Z,88439.00
2023-01-13T19:40:07.581Z,88441.00
2023-01-13T19:42:07.503Z,88447.00
2023-01-13T19:43:07.478Z,88451.00
2023-01-13T19:44:07.440Z,88455.00
2023-01-13T19:45:07.414Z,88459.00
2023-01-13T19:46:07.394Z,88459.00
2023-01-13T19:47:07.321Z,88461.00
2023-01-13T19:48:07.299Z,88463.00
2023-01-13T19:49:07.243Z,88463.00
2023-01-13T19:50:07.219Z,88461.00
2023-01-13T19:51:07.169Z,88459.00
2023-01-13T19:52:07.122Z,88457.00
2023-01-13T19:53:07.122Z,88455.00
2023-01-13T19:54:07.065Z,88451.00
2023-01-13T19:55:07.026Z,88449.00
2023-01-13T19:56:07.001Z,88445.00
2023-01-13T19:57:06.950Z,88443.00
2023-01-13T19:58:06.908Z,88439.00
2023-01-13T19:59:06.866Z,88437.00
2023-01-13T20:00:06.832Z,88439.00
2023-01-13T20:01:06.837Z,88441.00
2023-01-13T20:02:06.770Z,88441.00
2023-01-13T20:03:06.749Z,88447.00
2023-01-13T20:04:06.700Z,88451.00
2023-01-13T20:05:06.668Z,88449.00
2023-01-13T20:06:06.622Z,88449.00
2023-01-13T20:07:06.586Z,88451.00
2023-01-13T20:08:06.562Z,88451.00
2023-01-13T20:09:06.536Z,88451.00
2023-01-13T20:10:06.486Z,88451.00
2023-01-13T20:11:06.421Z,88451.00
2023-01-13T20:12:06.396Z,88451.00
2023-01-13T20:13:06.355Z,88453.00
2023-01-13T20:14:06.326Z,88455.00
2023-01-13T20:15:06.291Z,88455.00
2023-01-13T20:16:06.304Z,88459.00
2023-01-13T20:17:06.213Z,88455.00
2023-01-13T20:18:06.167Z,88455.00
2023-01-13T20:19:06.162Z,88459.00
2023-01-13T20:20:06.109Z,88465.00
2023-01-13T20:21:06.071Z,88474.00
2023-01-13T20:22:06.031Z,88474.00
2023-01-13T20:23:06.012Z,88478.00
2023-01-13T20:24:05.984Z,88478.00
2023-01-13T20:25:05.965Z,88485.00
2023-01-13T20:26:07.508Z,88485.00
2023-01-13T20:27:05.892Z,88487.00
2023-01-13T20:28:05.850Z,88483.00
2023-01-13T20:29:05.807Z,88483.00
2023-01-13T20:30:05.774Z,88483.00
2023-01-13T20:31:05.784Z,88485.00
2023-01-13T20:32:05.699Z,88483.00
2023-01-13T20:34:05.681Z,88487.00
2023-01-13T20:35:05.626Z,88491.00
2023-01-13T20:36:05.582Z,88495.00
2023-01-13T20:37:05.556Z,88495.00
2023-01-13T20:38:05.526Z,88493.00
2023-01-13T20:39:05.485Z,88489.00
2023-01-13T20:40:05.459Z,88483.00
2023-01-13T20:41:05.403Z,88476.00
2023-01-13T20:42:05.394Z,88476.00
2023-01-13T20:43:05.341Z,88467.00
2023-01-13T20:44:05.332Z,88467.00
2023-01-13T20:45:05.291Z,88467.00
2023-01-13T20:46:05.273Z,88476.00
2023-01-13T20:47:05.289Z,88483.00
2023-01-13T20:48:05.183Z,88489.00
2023-01-13T20:49:05.154Z,88489.00
2023-01-13T20:50:05.124Z,88491.00
2023-01-13T20:51:05.091Z,88489.00
2023-01-13T20:52:05.052Z,88485.00
2023-01-13T20:53:05.018Z,88491.00
2023-01-13T20:54:04.987Z,88485.00
2023-01-13T20:55:04.964Z,88485.00
2023-01-13T20:56:04.935Z,88485.00
2023-01-13T20:57:04.895Z,88485.00
2023-01-13T20:58:04.855Z,88491.00
2023-01-13T20:59:04.822Z,88491.00
2023-01-13T21:00:04.798Z,88489.00
2023-01-13T21:01:04.878Z,88485.00
2023-01-13T21:02:04.720Z,88485.00
2023-01-13T21:03:04.678Z,88481.00
2023-01-13T21:04:04.688Z,88485.00
2023-01-13T21:05:04.646Z,88485.00
2023-01-13T21:06:04.590Z,88487.00
2023-01-13T21:07:04.595Z,88489.00
2023-01-13T21:08:04.544Z,88491.00
2023-01-13T21:09:04.491Z,88497.00
2023-01-13T21:10:04.484Z,88501.00
2023-01-13T21:11:04.571Z,88499.00
2023-01-13T21:12:04.383Z,88501.00
2023-01-13T21:13:04.363Z,88507.00
2023-01-13T21:14:04.320Z,88509.00
2023-01-13T21:15:04.300Z,88509.00
2023-01-13T21:16:04.272Z,88513.00
2023-01-13T21:17:04.239Z,88517.00
2023-01-13T21:18:04.203Z,88521.00
2023-01-13T21:19:04.166Z,88523.00
2023-01-13T21:20:04.693Z,88525.00
2023-01-13T21:21:04.081Z,88533.00
2023-01-13T21:22:04.063Z,88536.00
2023-01-13T21:23:04.029Z,88536.00
2023-01-13T21:24:03.985Z,88540.00
2023-01-13T21:25:03.961Z,88540.00
2023-01-13T21:26:03.926Z,88544.00
2023-01-13T21:27:03.889Z,88546.00
2023-01-13T21:28:03.876Z,88546.00
2023-01-13T21:29:03.866Z,88548.00
2023-01-13T21:30:03.781Z,88552.00
2023-01-13T21:31:03.813Z,88552.00
2023-01-13T21:32:03.711Z,88558.00
2023-01-13T21:33:03.665Z,88558.00
2023-01-13T21:34:03.631Z,88556.00
2023-01-13T21:35:03.604Z,88558.00
2023-01-13T21:36:03.570Z,88560.00
2023-01-13T21:37:03.521Z,88560.00
2023-01-13T21:38:03.492Z,88560.00
2023-01-13T21:39:03.481Z,88562.00
2023-01-13T21:40:03.438Z,88560.00
2023-01-13T21:41:03.402Z,88560.00
2023-01-13T21:42:03.355Z,88558.00
2023-01-13T21:43:03.317Z,88562.00
2023-01-13T21:44:03.289Z,88564.00
2023-01-13T21:45:03.265Z,88560.00
2023-01-13T21:46:05.403Z,88562.00
2023-01-13T21:47:03.187Z,88562.00
2023-01-13T21:48:03.191Z,88562.00
2023-01-13T21:49:03.127Z,88564.00
2023-01-13T21:50:03.080Z,88562.00
2023-01-13T21:51:03.062Z,88560.00
2023-01-13T21:52:03.028Z,88556.00
2023-01-13T21:53:03.023Z,88552.00
2023-01-13T21:54:02.991Z,88550.00
2023-01-13T21:55:02.930Z,88550.00
2023-01-13T21:56:02.894Z,88550.00
2023-01-13T21:57:02.871Z,88552.00
2023-01-13T21:58:02.831Z,88554.00
2023-01-13T21:59:02.796Z,88554.00
2023-01-13T22:00:02.802Z,88558.00
2023-01-13T22:01:02.888Z,88560.00
2023-01-13T22:02:24.212Z,88564.00
2023-01-13T22:04:02.639Z,88564.00
2023-01-13T22:05:02.591Z,88568.00
2023-01-13T22:06:02.612Z,88572.00
2023-01-13T22:07:02.544Z,88574.00
2023-01-13T22:08:02.506Z,88576.00
2023-01-13T22:09:02.473Z,88582.00
2023-01-13T22:10:02.432Z,88582.00
2023-01-13T22:11:02.434Z,88586.00
2023-01-13T22:12:02.358Z,88586.00
2023-01-13T22:13:02.325Z,88586.00
2023-01-13T22:14:02.284Z,88584.00
2023-01-13T22:15:02.261Z,88584.00
2023-01-13T22:16:02.231Z,88588.00
2023-01-13T22:17:02.210Z,88588.00
2023-01-13T22:18:02.184Z,88586.00
2023-01-13T22:19:02.156Z,88590.00
2023-01-13T22:20:02.103Z,88591.00
2023-01-13T22:21:02.052Z,88597.00
2023-01-13T22:22:02.037Z,88601.00
2023-01-13T22:23:01.987Z,88603.00
2023-01-13T22:24:01.948Z,88595.00
2023-01-13T22:25:01.918Z,88595.00
2023-01-13T22:26:01.910Z,88595.00
2023-01-13T22:27:01.849Z,88593.00
2023-01-13T22:28:01.826Z,88593.00
2023-01-13T22:29:01.793Z,88590.00
2023-01-13T22:30:01.754Z,88588.00
2023-01-13T22:31:01.716Z,88588.00
2023-01-13T22:32:01.715Z,88590.00
2023-01-13T22:33:01.647Z,88593.00
2023-01-13T22:34:01.600Z,88595.00
2023-01-13T22:35:01.614Z,88595.00
2023-01-13T22:36:01.560Z,88591.00
2023-01-13T22:37:01.551Z,88588.00
2023-01-13T22:38:01.475Z,88591.00
2023-01-13T22:39:01.443Z,88593.00
2023-01-13T22:40:01.432Z,88595.00
2023-01-13T22:41:01.370Z,88595.00
2023-01-13T22:43:01.332Z,88595.00
2023-01-13T22:44:01.296Z,88599.00
2023-01-13T22:45:01.261Z,88597.00
2023-01-13T22:46:01.264Z,88597.00
2023-01-13T22:47:01.199Z,88597.00
2023-01-13T22:48:01.174Z,88597.00
2023-01-13T22:49:01.133Z,88603.00
2023-01-13T22:50:01.090Z,88605.00
2023-01-13T23:43:59.327Z,88633.00
2023-01-13T23:44:59.269Z,88633.00
2023-01-13T23:45:59.244Z,88627.00
2023-01-13T23:46:59.217Z,88629.00
2023-01-13T23:47:59.176Z,88627.00
2023-01-13T23:48:59.143Z,88629.00
2023-01-13T23:49:59.112Z,88631.00
2023-01-13T23:50:59.095Z,88627.00
2023-01-13T23:51:59.043Z,88631.00
2023-01-13T23:52:59.012Z,88631.00
2023-01-13T23:53:59.011Z,88633.00
2023-01-13T23:54:58.970Z,88642.00
2023-01-13T23:55:58.947Z,88637.00
2023-01-13T23:56:58.912Z,88637.00
